createdAt,value
2023-05-25T00:01:03.179Z,7.13
2023-05-25T00:03:24.042Z,6.90
2023-05-25T00:05:37.822Z,7.30
2023-05-25T00:07:41.256Z,7.40
2023-05-25T00:09:53.482Z,6.93
2023-05-25T00:12:20.533Z,7.83
2023-05-25T00:14:48.539Z,6.67
2023-05-25T00:18:03.396Z,7.13
2023-05-25T00:20:17.152Z,6.97
2023-05-25T00:22:54.657Z,7.27
2023-05-25T00:25:07.932Z,7.13
2023-05-25T00:27:49.214Z,7.30
2023-05-25T00:30:12.505Z,7.80
2023-05-25T00:32:33.972Z,7.73
2023-05-25T00:34:49.748Z,7.67
2023-05-25T00:36:57.431Z,8.50
2023-05-25T00:38:58.326Z,7.47
2023-05-25T00:41:01.207Z,8.33
2023-05-25T00:43:03.735Z,7.80
2023-05-25T00:45:07.190Z,8.20
2023-05-25T00:47:03.279Z,7.60
2023-05-25T00:48:58.989Z,8.37
2023-05-25T00:50:58.263Z,8.00
2023-05-25T00:52:57.545Z,8.43
2023-05-25T00:54:57.051Z,8.67
2023-05-25T00:56:55.945Z,8.30
2023-05-25T00:58:54.537Z,7.60
2023-05-25T01:00:53.561Z,7.47
2023-05-25T01:02:53.082Z,7.60
2023-05-25T01:04:53.003Z,6.97
2023-05-25T01:06:54.579Z,7.30
2023-05-25T01:09:00.443Z,7.37
2023-05-25T01:10:58.014Z,7.47
2023-05-25T01:12:56.736Z,7.30
2023-05-25T01:14:53.726Z,6.80
2023-05-25T01:16:49.980Z,7.03
2023-05-25T01:18:45.907Z,7.03
2023-05-25T01:20:41.159Z,7.20
2023-05-25T01:22:46.363Z,7.13
2023-05-25T01:24:46.278Z,7.17
2023-05-25T01:26:49.406Z,7.07
2023-05-25T01:28:50.531Z,7.37
2023-05-25T01:30:49.532Z,8.13
2023-05-25T01:32:46.114Z,8.07
2023-05-25T01:34:44.409Z,7.43
2023-05-25T01:36:39.910Z,8.10
2023-05-25T01:38:40.098Z,8.00
2023-05-25T01:40:35.424Z,8.33
2023-05-25T01:42:31.284Z,7.80
2023-05-25T01:44:26.847Z,8.47
2023-05-25T01:46:32.522Z,8.10
2023-05-25T01:48:39.894Z,7.93
2023-05-25T01:50:46.316Z,8.33
2023-05-25T01:52:47.484Z,7.37
2023-05-25T01:54:51.324Z,8.70
2023-05-25T01:56:51.481Z,7.77
2023-05-25T01:58:49.989Z,9.43
2023-05-25T02:00:46.260Z,8.07
2023-05-25T02:02:45.368Z,8.77
2023-05-25T02:04:45.185Z,9.37
2023-05-25T02:06:43.080Z,8.37
2023-05-25T02:08:39.769Z,8.53
2023-05-25T02:10:40.364Z,8.50
2023-05-25T02:12:36.317Z,7.93
2023-05-25T02:14:32.356Z,8.03
2023-05-25T02:16:27.866Z,9.43
2023-05-25T02:18:23.826Z,8.67
2023-05-25T02:20:19.077Z,8.70
2023-05-25T02:22:15.691Z,9.07
2023-05-25T02:24:11.314Z,7.40
2023-05-25T02:26:09.448Z,7.80
2023-05-25T02:28:04.612Z,8.10
2023-05-25T02:30:00.034Z,8.03
2023-05-25T02:31:55.119Z,7.83
2023-05-25T02:33:50.861Z,7.90
2023-05-25T02:35:46.296Z,8.60
2023-05-25T02:37:42.264Z,7.80
2023-05-25T02:39:37.401Z,7.77
2023-05-25T02:41:35.543Z,8.47
2023-05-25T02:43:30.804Z,8.83
2023-05-25T02:45:26.326Z,9.10
2023-05-25T02:47:21.907Z,8.73
2023-05-25T02:49:17.509Z,8.57
2023-05-25T02:51:12.785Z,8.20
2023-05-25T02:53:08.204Z,7.80
2023-05-25T02:55:03.635Z,7.30
2023-05-25T02:57:03.291Z,7.00
2023-05-25T02:58:59.450Z,7.73
2023-05-25T03:00:55.020Z,7.13
2023-05-25T03:02:50.192Z,7.90
2023-05-25T03:04:46.090Z,7.60
2023-05-25T03:06:41.192Z,6.90
2023-05-25T03:08:36.657Z,7.13
2023-05-25T03:10:31.763Z,6.93
2023-05-25T03:12:29.808Z,6.60
2023-05-25T03:14:24.891Z,6.57
2023-05-25T03:16:20.368Z,7.33
2023-05-25T03:18:15.424Z,6.57
2023-05-25T03:20:14.786Z,7.67
2023-05-25T03:22:09.962Z,7.53
2023-05-25T03:24:05.481Z,6.87
2023-05-25T03:26:02.590Z,6.90
2023-05-25T03:28:01.022Z,7.63
2023-05-25T03:29:56.626Z,7.30
2023-05-25T03:31:52.784Z,6.60
2023-05-25T03:33:50.811Z,7.20
2023-05-25T03:35:56.490Z,7.13
2023-05-25T03:37:54.960Z,7.80
2023-05-25T03:40:09.820Z,6.73
2023-05-25T03:42:20.205Z,6.43
2023-05-25T03:44:30.261Z,7.20
2023-05-25T03:46:42.215Z,7.40
2023-05-25T03:48:42.110Z,7.57
2023-05-25T03:50:41.353Z,7.40
2023-05-25T03:52:48.814Z,7.53
2023-05-25T03:55:00.376Z,8.37
2023-05-25T03:56:56.992Z,7.20
2023-05-25T03:58:52.984Z,7.67
2023-05-25T04:00:51.974Z,7.93
2023-05-25T04:02:47.095Z,7.83
2023-05-25T04:04:44.255Z,8.00
2023-05-25T04:06:40.366Z,7.40
2023-05-25T04:08:36.411Z,7.87
2023-05-25T04:10:32.412Z,7.20
2023-05-25T04:12:28.037Z,7.97
2023-05-25T04:14:23.304Z,9.03
2023-05-25T04:16:22.019Z,7.63
2023-05-25T04:18:17.282Z,7.87
2023-05-25T04:20:13.713Z,8.67
2023-05-25T04:22:09.027Z,9.40
2023-05-25T04:24:04.584Z,8.30
2023-05-25T04:26:00.190Z,8.83
2023-05-25T04:27:56.927Z,8.37
2023-05-25T04:29:54.389Z,8.47
2023-05-25T04:31:54.841Z,7.83
2023-05-25T04:33:50.222Z,8.00
2023-05-25T04:35:46.034Z,7.90
2023-05-25T04:37:41.768Z,8.40
2023-05-25T04:39:37.185Z,8.97
2023-05-25T04:41:33.987Z,8.70
2023-05-25T04:43:29.989Z,8.50
2023-05-25T04:45:25.088Z,9.20
2023-05-25T04:47:25.106Z,9.50
2023-05-25T04:49:21.597Z,9.40
2023-05-25T04:51:16.939Z,9.00
2023-05-25T04:53:12.144Z,9.13
2023-05-25T04:55:08.280Z,9.10
2023-05-25T04:57:04.674Z,9.37
2023-05-25T04:59:00.158Z,10.27
2023-05-25T05:00:55.329Z,10.80
2023-05-25T05:02:54.101Z,9.00
2023-05-25T05:04:52.650Z,9.23
2023-05-25T05:06:48.037Z,9.40
2023-05-25T05:08:43.381Z,9.13
2023-05-25T05:10:38.783Z,10.07
2023-05-25T05:12:33.848Z,10.23
2023-05-25T05:14:29.593Z,9.50
2023-05-25T05:16:24.894Z,10.27
2023-05-25T05:18:23.193Z,10.60
2023-05-25T05:20:18.468Z,10.90
2023-05-25T05:22:16.144Z,10.63
2023-05-25T05:24:11.417Z,9.97
2023-05-25T05:26:11.070Z,10.47
2023-05-25T05:28:06.165Z,10.23
2023-05-25T05:30:01.613Z,10.17
2023-05-25T05:31:57.521Z,9.90
2023-05-25T05:33:55.633Z,11.27
2023-05-25T05:35:50.756Z,12.00
2023-05-25T05:37:47.906Z,11.87
2023-05-25T05:39:42.969Z,10.80
2023-05-25T05:41:38.408Z,11.30
2023-05-25T05:43:34.236Z,10.70
2023-05-25T05:45:29.717Z,11.00
2023-05-25T05:47:24.878Z,10.97
2023-05-25T05:49:23.476Z,11.13
2023-05-25T05:51:18.554Z,10.93
2023-05-25T05:53:13.923Z,10.57
2023-05-25T05:55:09.685Z,10.33
2023-05-25T05:57:05.325Z,11.97
2023-05-25T05:59:01.206Z,11.23
2023-05-25T06:01:00.434Z,11.50
2023-05-25T06:02:55.755Z,10.03
2023-05-25T06:04:54.074Z,10.67
2023-05-25T06:06:49.376Z,10.93
2023-05-25T06:08:45.597Z,11.83
2023-05-25T06:10:42.503Z,11.33
2023-05-25T06:12:38.291Z,11.27
2023-05-25T06:14:33.678Z,11.03
2023-05-25T06:16:29.889Z,10.70
2023-05-25T06:18:25.699Z,10.40
2023-05-25T06:20:24.400Z,10.40
2023-05-25T06:22:22.695Z,11.07
2023-05-25T06:24:18.813Z,10.40
2023-05-25T06:26:13.896Z,10.33
2023-05-25T06:28:09.285Z,10.83
2023-05-25T06:30:04.481Z,10.60
2023-05-25T06:32:47.562Z,10.20
2023-05-25T06:35:04.794Z,10.27
2023-05-25T06:37:25.627Z,10.30
2023-05-25T06:42:56.656Z,9.93
2023-05-25T06:45:05.306Z,9.07
2023-05-25T06:47:03.502Z,10.13
2023-05-25T06:49:07.246Z,10.17
2023-05-25T06:51:10.526Z,9.23
2023-05-25T06:53:08.665Z,9.97
2023-05-25T06:55:08.988Z,9.07
2023-05-25T06:57:04.591Z,9.17
2023-05-25T06:59:00.602Z,8.80
2023-05-25T07:04:43.357Z,7.73
2023-05-25T07:07:40.598Z,7.87
2023-05-25T07:11:02.476Z,8.27
2023-05-25T07:13:33.922Z,6.77
2023-05-25T07:14:56.510Z,9.67
2023-05-25T07:15:33.645Z,7.35
2023-05-25T07:18:16.832Z,7.78
2023-05-25T07:21:17.317Z,7.67
2023-05-25T07:24:06.557Z,7.10
2023-05-25T07:26:10.131Z,6.93
2023-05-25T07:28:21.545Z,6.47
2023-05-25T07:30:21.801Z,7.22
2023-05-25T07:32:38.127Z,7.18
2023-05-25T07:34:39.352Z,5.93
2023-05-25T07:36:38.191Z,5.88
2023-05-25T07:39:05.982Z,5.68
2023-05-25T07:41:20.320Z,5.68
2023-05-25T07:43:40.959Z,6.03
2023-05-25T07:46:37.179Z,5.88
2023-05-25T07:50:06.413Z,5.20
2023-05-25T07:53:03.289Z,6.18
2023-05-25T07:55:01.496Z,5.70
2023-05-25T07:59:52.804Z,5.60
2023-05-25T08:02:00.164Z,5.70
2023-05-25T08:04:20.216Z,5.50
2023-05-25T08:06:39.237Z,5.60
2023-05-25T08:09:27.951Z,5.82
2023-05-25T08:11:32.044Z,5.60
2023-05-25T08:13:29.145Z,3.90
2023-05-25T08:15:32.157Z,4.00
2023-05-25T08:17:32.810Z,4.70
2023-05-25T08:19:49.312Z,4.68
2023-05-25T08:21:44.613Z,4.75
2023-05-25T08:23:42.913Z,5.00
2023-05-25T08:26:34.245Z,4.68
2023-05-25T08:28:31.063Z,4.90
2023-05-25T08:30:34.022Z,4.50
2023-05-25T08:32:30.459Z,4.40
2023-05-25T08:34:35.926Z,3.90
2023-05-25T08:36:34.145Z,4.53
2023-05-25T08:38:31.391Z,4.68
2023-05-25T08:40:31.460Z,4.15
2023-05-25T08:42:28.668Z,4.95
2023-05-25T08:44:24.508Z,4.47
2023-05-25T08:46:33.414Z,4.30
2023-05-25T08:48:40.049Z,3.70
2023-05-25T08:50:44.591Z,4.63
2023-05-25T08:52:45.763Z,3.92
2023-05-25T08:54:51.000Z,4.13
2023-05-25T08:56:53.117Z,4.30
2023-05-25T08:58:53.925Z,4.03
2023-05-25T09:01:12.263Z,4.35
2023-05-25T09:07:49.148Z,4.20
2023-05-25T09:11:17.054Z,4.85
2023-05-25T09:13:31.314Z,4.35
2023-05-25T09:15:30.470Z,4.40
2023-05-25T09:17:31.408Z,4.82
2023-05-25T09:19:33.747Z,5.10
2023-05-25T09:21:41.076Z,4.97
2023-05-25T09:27:07.707Z,4.90
2023-05-25T09:44:53.765Z,4.00
2023-05-25T09:48:19.683Z,4.35
2023-05-25T09:50:30.493Z,3.88
2023-05-25T09:53:24.727Z,3.83
2023-05-25T09:55:51.537Z,4.20
2023-05-25T10:05:26.442Z,4.32
2023-05-25T10:08:55.163Z,4.10
2023-05-25T10:11:19.762Z,4.40
2023-05-25T10:15:01.962Z,4.15
2023-05-25T10:20:57.835Z,4.03
2023-05-25T10:23:23.322Z,4.50
2023-05-25T10:26:17.610Z,4.85
2023-05-25T10:28:25.593Z,5.05
2023-05-25T10:30:32.711Z,4.38
2023-05-25T10:33:38.805Z,4.53
2023-05-25T10:45:42.471Z,4.82
2023-05-25T10:47:51.400Z,5.05
2023-05-25T10:49:58.113Z,5.10
2023-05-25T10:52:13.536Z,5.05
2023-05-25T10:55:17.178Z,4.30
2023-05-25T10:57:34.291Z,5.22
2023-05-25T10:59:30.843Z,4.10
2023-05-25T11:01:28.769Z,4.90
2023-05-25T11:03:24.681Z,4.80
2023-05-25T11:05:42.344Z,4.93
2023-05-25T11:08:18.997Z,4.60
2023-05-25T11:10:18.589Z,4.25
2023-05-25T11:12:24.375Z,4.28
2023-05-25T11:14:32.518Z,4.50
2023-05-25T11:16:40.276Z,4.80
2023-05-25T11:18:44.004Z,4.82
2023-05-25T11:20:39.573Z,4.68
2023-05-25T11:22:39.147Z,4.45
2023-05-25T11:24:49.987Z,4.55
2023-05-25T11:30:33.073Z,4.15
2023-05-25T11:32:53.810Z,5.18
2023-05-25T11:37:32.033Z,4.45
2023-05-25T11:46:16.953Z,5.30
2023-05-25T11:52:29.870Z,5.15
2023-05-25T11:55:08.934Z,4.70
2023-05-25T11:57:18.115Z,5.03
2023-05-25T11:59:32.203Z,5.50
2023-05-25T12:12:16.387Z,4.95
2023-05-25T12:14:23.048Z,5.22
2023-05-25T12:16:39.341Z,5.55
2023-05-25T12:18:51.791Z,4.65
2023-05-25T12:22:03.890Z,4.80
2023-05-25T12:28:13.015Z,4.85
2023-05-25T12:30:11.124Z,4.50
2023-05-25T12:32:15.419Z,4.80
2023-05-25T12:42:24.748Z,5.55
2023-05-25T12:48:21.114Z,4.50
2023-05-25T12:50:24.070Z,5.32
2023-05-25T12:58:54.952Z,4.43
2023-05-25T13:00:51.595Z,4.85
2023-05-25T13:04:30.295Z,5.82
2023-05-25T13:06:47.405Z,5.25
2023-05-25T13:09:55.457Z,5.53
2023-05-25T13:12:57.584Z,5.55
2023-05-25T13:16:28.852Z,6.50
2023-05-25T13:24:18.046Z,6.55
2023-05-25T13:24:43.727Z,5.20
2023-05-25T13:31:07.911Z,5.85
2023-05-25T13:33:15.028Z,5.47
2023-05-25T13:35:18.756Z,5.40
2023-05-25T13:37:31.110Z,5.25
2023-05-25T13:39:26.877Z,5.32
2023-05-25T13:41:22.252Z,5.80
2023-05-25T13:43:18.226Z,5.35
2023-05-25T13:45:14.137Z,4.93
2023-05-25T13:47:12.678Z,5.00
2023-05-25T13:49:09.135Z,6.05
2023-05-25T13:51:05.231Z,5.57
2023-05-25T13:53:00.328Z,4.80
2023-05-25T13:54:55.701Z,5.43
2023-05-25T13:56:50.831Z,4.53
2023-05-25T13:58:46.420Z,4.85
2023-05-25T14:00:43.698Z,4.82
2023-05-25T14:02:43.723Z,4.07
2023-05-25T14:04:38.985Z,4.43
2023-05-25T14:06:35.087Z,4.90
2023-05-25T14:08:31.483Z,4.80
2023-05-25T14:10:26.912Z,4.85
2023-05-25T14:12:22.249Z,5.75
2023-05-25T14:14:30.155Z,5.47
2023-05-25T14:16:26.290Z,5.07
2023-05-25T14:18:24.587Z,5.07
2023-05-25T14:23:24.787Z,4.70
2023-05-25T14:25:36.704Z,5.13
2023-05-25T14:27:51.622Z,4.70
2023-05-25T14:31:04.777Z,4.97
2023-05-25T14:33:16.986Z,4.80
2023-05-25T14:35:19.428Z,5.00
2023-05-25T14:37:17.068Z,4.40
2023-05-25T14:41:57.935Z,4.47
2023-05-25T14:44:38.193Z,4.85
2023-05-25T14:47:01.613Z,4.35
2023-05-25T14:49:40.312Z,4.43
2023-05-25T14:52:11.505Z,4.20
2023-05-25T14:54:57.404Z,5.03
2023-05-25T14:57:37.361Z,4.72
2023-05-25T15:00:02.860Z,4.60
2023-05-25T15:02:18.903Z,4.57
2023-05-25T15:04:28.246Z,4.40
2023-05-25T15:07:17.732Z,4.78
2023-05-25T15:09:45.006Z,4.93
2023-05-25T15:12:48.451Z,4.72
2023-05-25T15:14:48.674Z,4.15
2023-05-25T15:17:05.166Z,4.22
2023-05-25T15:19:28.978Z,4.18
2023-05-25T15:21:28.380Z,4.55
2023-05-25T15:23:27.591Z,4.18
2023-05-25T15:25:35.432Z,4.97
2023-05-25T15:27:32.436Z,4.18
2023-05-25T15:29:27.730Z,4.57
2023-05-25T15:31:42.184Z,5.00
2023-05-25T15:33:52.138Z,4.38
2023-05-25T15:35:52.997Z,4.80
2023-05-25T15:37:51.035Z,4.38
2023-05-25T15:39:50.084Z,4.65
2023-05-25T15:41:48.010Z,4.55
2023-05-25T15:43:47.089Z,4.93
2023-05-25T15:45:47.113Z,4.28
2023-05-25T15:47:43.372Z,8.15
2023-05-25T15:49:39.012Z,4.38
2023-05-25T15:51:34.666Z,4.97
2023-05-25T15:53:30.514Z,4.72
2023-05-25T15:55:34.656Z,4.70
2023-05-25T15:57:30.082Z,4.47
2023-05-25T15:59:25.662Z,4.20
2023-05-25T16:01:21.257Z,4.95
2023-05-25T16:03:17.312Z,4.90
2023-05-25T16:05:13.268Z,4.38
2023-05-25T16:07:09.429Z,4.18
2023-05-25T16:09:04.892Z,4.00
2023-05-25T16:11:03.584Z,4.30
2023-05-25T16:13:14.257Z,4.18
2023-05-25T16:15:51.100Z,4.53
2023-05-25T16:17:59.610Z,4.80
2023-05-25T16:20:16.280Z,4.53
2023-05-25T16:25:26.415Z,4.00
2023-05-25T16:27:35.290Z,3.70
2023-05-25T16:29:57.012Z,4.05
2023-05-25T16:31:55.581Z,3.92
2023-05-25T16:33:51.119Z,4.40
2023-05-25T16:35:46.501Z,18.00
2023-05-25T16:37:46.373Z,4.47
2023-05-25T16:39:44.019Z,3.83
2023-05-25T16:41:59.893Z,4.00
2023-05-25T16:44:03.973Z,3.95
2023-05-25T16:46:24.397Z,4.47
2023-05-25T16:48:44.793Z,3.92
2023-05-25T16:50:47.232Z,3.67
2023-05-25T16:53:02.052Z,3.65
2023-05-25T16:54:59.614Z,3.97
2023-05-25T16:56:55.427Z,4.13
2023-05-25T16:58:51.804Z,3.70
2023-05-25T17:00:52.989Z,4.32
2023-05-25T17:02:48.644Z,4.03
2023-05-25T17:04:43.824Z,3.63
2023-05-25T17:06:39.464Z,3.67
2023-05-25T17:08:37.078Z,3.70
2023-05-25T17:10:32.531Z,3.70
2023-05-25T17:12:27.700Z,8.02
2023-05-25T17:14:23.136Z,4.25
2023-05-25T17:16:20.903Z,3.50
2023-05-25T17:18:16.658Z,3.90
2023-05-25T17:20:26.651Z,3.60
2023-05-25T17:22:22.865Z,3.53
2023-05-25T17:24:18.286Z,3.72
2023-05-25T17:26:13.787Z,4.05
2023-05-25T17:28:09.304Z,3.97
2023-05-25T17:30:05.082Z,3.65
2023-05-25T17:32:02.875Z,3.40
2023-05-25T17:33:58.789Z,3.83
2023-05-25T17:35:54.192Z,3.65
2023-05-25T17:37:49.710Z,4.03
2023-05-25T17:39:45.169Z,3.75
2023-05-25T17:41:41.584Z,3.88
2023-05-25T17:43:36.765Z,3.28
2023-05-25T17:45:34.117Z,4.20
2023-05-25T17:47:33.054Z,3.78
2023-05-25T17:49:28.442Z,4.10
2023-05-25T17:51:23.854Z,3.92
2023-05-25T17:53:19.447Z,4.00
2023-05-25T17:55:15.078Z,4.13
2023-05-25T17:57:11.343Z,4.45
2023-05-25T17:59:24.810Z,4.20
2023-05-25T18:01:36.623Z,3.95
2023-05-25T18:03:49.376Z,4.53
2023-05-25T18:05:54.014Z,4.10
2023-05-25T18:07:58.518Z,4.60
2023-05-25T18:10:02.025Z,4.53
2023-05-25T18:12:25.304Z,4.55
2023-05-25T18:14:29.284Z,4.60
2023-05-25T18:16:40.017Z,4.72
2023-05-25T18:18:44.403Z,3.92
2023-05-25T18:21:11.843Z,4.15
2023-05-25T18:23:29.710Z,4.72
2023-05-25T18:25:35.387Z,4.45
2023-05-25T18:30:01.946Z,4.10
2023-05-25T18:31:59.039Z,4.40
2023-05-25T18:34:09.617Z,4.97
2023-05-25T18:36:21.671Z,4.32
2023-05-25T18:38:47.340Z,5.50
2023-05-25T18:40:46.317Z,5.72
2023-05-25T18:42:46.647Z,5.72
2023-05-25T18:44:42.345Z,5.05
2023-05-25T18:46:39.843Z,5.07
2023-05-25T18:48:42.982Z,4.80
2023-05-25T18:50:42.965Z,4.20
2023-05-25T18:52:39.265Z,4.18
2023-05-25T18:54:53.520Z,3.90
2023-05-25T18:56:56.430Z,5.60
2023-05-25T18:58:55.441Z,4.30
2023-05-25T19:00:51.634Z,4.40
2023-05-25T19:03:00.212Z,4.03
2023-05-25T19:05:07.184Z,4.07
2023-05-25T19:07:05.496Z,4.70
2023-05-25T19:11:11.812Z,4.80
2023-05-25T19:13:07.398Z,4.55
2023-05-25T19:15:07.792Z,4.68
2023-05-25T19:17:08.458Z,4.53
2023-05-25T19:19:04.291Z,4.20
2023-05-25T19:21:10.176Z,4.13
2023-05-25T19:23:15.006Z,4.18
2023-05-25T19:25:12.877Z,3.95
2023-05-25T19:27:21.487Z,5.78
2023-05-25T19:29:17.463Z,4.78
2023-05-25T19:31:15.053Z,4.68
2023-05-25T19:33:24.078Z,4.40
2023-05-25T19:35:22.423Z,4.85
2023-05-25T19:37:18.342Z,3.83
2023-05-25T19:39:21.815Z,5.13
2023-05-25T19:41:17.530Z,4.53
2023-05-25T19:43:15.128Z,4.47
2023-05-25T19:45:19.391Z,4.82
2023-05-25T19:47:18.341Z,4.53
2023-05-25T19:49:29.432Z,4.32
2023-05-25T19:51:27.460Z,4.30
2023-05-25T19:53:27.597Z,5.03
2023-05-25T19:55:29.903Z,4.72
2023-05-25T19:57:41.150Z,4.07
2023-05-25T19:59:39.828Z,4.72
2023-05-25T20:01:35.483Z,4.85
2023-05-25T20:03:31.137Z,4.75
2023-05-25T20:05:26.431Z,4.95
2023-05-25T20:07:22.075Z,4.93
2023-05-25T20:09:17.230Z,4.70
2023-05-25T20:11:15.329Z,5.13
2023-05-25T20:13:10.349Z,5.22
2023-05-25T20:15:05.864Z,4.70
2023-05-25T20:17:01.130Z,5.20
2023-05-25T20:18:56.538Z,4.82
2023-05-25T20:20:52.029Z,4.90
2023-05-25T20:22:47.469Z,4.65
2023-05-25T20:24:42.572Z,4.55
2023-05-25T20:26:40.596Z,4.93
2023-05-25T20:28:35.651Z,5.30
2023-05-25T20:30:31.116Z,5.30
2023-05-25T20:32:26.191Z,5.22
2023-05-25T20:34:21.763Z,11.68
2023-05-25T20:36:16.806Z,5.35
2023-05-25T20:38:12.585Z,5.55
2023-05-25T20:40:09.343Z,4.80
2023-05-25T20:42:08.377Z,5.50
2023-05-25T20:44:06.616Z,5.13
2023-05-25T20:46:02.136Z,5.32
2023-05-25T20:48:02.267Z,6.28
2023-05-25T20:49:58.591Z,5.90
2023-05-25T20:51:53.703Z,5.70
2023-05-25T20:53:49.389Z,5.75
2023-05-25T20:55:44.991Z,5.10
2023-05-25T20:57:48.572Z,5.10
2023-05-25T20:59:47.085Z,4.57
2023-05-25T21:01:44.407Z,5.40
2023-05-25T21:03:42.099Z,5.32
2023-05-25T21:05:38.339Z,5.07
2023-05-25T21:07:33.670Z,5.57
2023-05-25T21:09:29.282Z,5.22
2023-05-25T21:11:26.340Z,5.78
2023-05-25T21:13:24.950Z,4.82
2023-05-25T21:15:20.194Z,5.43
2023-05-25T21:17:17.172Z,4.90
2023-05-25T21:19:12.268Z,6.22
2023-05-25T21:21:07.860Z,5.30
2023-05-25T21:23:02.947Z,5.47
2023-05-25T21:24:58.386Z,4.53
2023-05-25T21:26:53.387Z,5.40
2023-05-25T21:28:51.949Z,4.90
2023-05-25T21:30:47.858Z,4.97
2023-05-25T21:32:50.737Z,4.85
2023-05-25T21:34:46.733Z,5.07
2023-05-25T21:36:46.437Z,5.05
2023-05-25T21:38:43.014Z,4.85
2023-05-25T21:40:40.345Z,7.47
2023-05-25T21:42:37.567Z,5.15
2023-05-25T21:44:37.961Z,5.05
2023-05-25T21:46:34.721Z,6.00
2023-05-25T21:48:33.510Z,6.00
2023-05-25T21:50:28.968Z,6.07
2023-05-25T21:52:28.096Z,6.50
2023-05-25T21:54:24.125Z,6.72
2023-05-25T21:56:21.033Z,5.72
2023-05-25T21:58:16.943Z,7.10
2023-05-25T22:00:16.806Z,9.50
2023-05-25T22:02:12.621Z,8.30
2023-05-25T22:04:08.108Z,8.57
2023-05-25T22:06:03.172Z,8.73
2023-05-25T22:23:44.878Z,8.48
2023-05-25T22:33:14.239Z,8.10
2023-05-25T22:36:21.876Z,7.13
2023-05-25T22:38:28.671Z,7.00
2023-05-25T22:40:32.086Z,7.20
2023-05-25T22:42:27.557Z,7.25
2023-05-25T22:44:23.304Z,6.32
2023-05-25T22:46:18.848Z,7.30
2023-05-25T22:48:17.287Z,6.38
2023-05-25T22:50:14.024Z,6.47
2023-05-25T22:52:09.850Z,5.65
2023-05-25T22:55:38.376Z,5.30
2023-05-25T23:02:52.516Z,6.05
2023-05-25T23:05:36.375Z,5.07
2023-05-25T23:07:45.371Z,5.72
2023-05-25T23:09:40.545Z,6.18
2023-05-25T23:11:35.916Z,5.85
2023-05-25T23:13:31.122Z,5.70
2023-05-25T23:15:26.665Z,5.22
2023-05-25T23:17:21.814Z,5.43
2023-05-25T23:19:18.122Z,5.70
2023-05-25T23:21:15.837Z,5.47
2023-05-25T23:23:11.215Z,5.90
2023-05-25T23:25:06.783Z,5.68
2023-05-25T23:27:02.835Z,6.07
2023-05-25T23:28:57.959Z,5.85
2023-05-25T23:30:53.348Z,5.85
2023-05-25T23:32:48.488Z,5.85
2023-05-25T23:57:32.448Z,5.88
